ENTC/TOS METAR and TAF weather

Enter ICAO airport designator
Station Type Date Time Source
ENTC METAR 2019/08/22 08:50 UTC NOAA

ENTC 220850Z 25005KT 190V290 9999 BKN030 11/08 Q1017 NOSIG RMK WIND 2600FT 23009KT


Station Type Date Time Source
ENTC Decoded METAR 2019/08/22 08:50 UTC NOAA

Station name not available
Aug 22, 2019 - 04:50 AM EDT / 2019.08.22 0850 UTC
Wind: from the WSW (250 degrees) at 6 MPH (5 KT) (direction variable):0
Visibility: greater than 7 mile(s):0
Sky conditions: mostly cloudy
Temperature: 51 F (11 C)
Dew Point: 46 F (8 C)
Relative Humidity: 81%
Pressure (altimeter): 30.03 in. Hg (1017 hPa)
ob: ENTC 220850Z 25005KT 190V290 9999 BKN030 11/08 Q1017 NOSIG RMK WIND 2600FT 23009KT
cycle: 9

Station Type Date Time Source
ENTC TAF 2019/08/22 06:57 UTC NOAA

TAF ENTC 220500Z 2206/2306 23009KT 9999 FEW008 BKN020 PROB40
TEMPO 2206/2212 BKN012
TEMPO 2215/2222 SHRA FEW020CB
BECMG 2216/2219 01010KT

Example: see airport list